createdAt,value
2017-03-02T10:08:22.867Z,420
2017-03-02T10:08:51.739Z,425
2017-03-02T10:09:23.761Z,430
2017-03-02T10:09:57.454Z,440
2017-03-02T10:10:27.996Z,445
2017-03-02T10:10:57.793Z,445
2017-03-02T10:11:31.697Z,450
2017-03-02T10:12:06.922Z,445
2017-03-02T10:12:39.131Z,450
2017-03-02T10:13:09.647Z,450
2017-03-02T10:13:40.331Z,455
2017-03-02T10:14:09.516Z,460
2017-03-02T10:14:38.710Z,460
2017-03-02T10:15:07.500Z,465
2017-03-02T10:15:36.775Z,470
2017-03-02T10:16:05.147Z,475
2017-03-02T10:16:34.192Z,475
2017-03-02T10:17:02.641Z,480
2017-03-02T10:17:30.969Z,480
2017-03-02T10:17:59.229Z,490
2017-03-02T10:18:27.702Z,510
2017-03-02T10:18:56.095Z,520
2017-03-02T10:19:24.326Z,520
2017-03-02T10:19:52.449Z,525
2017-03-02T10:20:20.556Z,530
2017-03-02T10:20:48.728Z,545
2017-03-02T10:21:17.038Z,555
2017-03-02T10:21:46.404Z,580
2017-03-02T10:22:15.389Z,645
2017-03-02T10:22:43.489Z,685
2017-03-02T10:23:11.757Z,665
2017-03-02T10:23:40.158Z,620
2017-03-02T10:24:13.661Z,645
2017-03-02T10:24:46.234Z,660
2017-03-02T10:25:14.482Z,925
2017-03-02T10:25:45.561Z,1245
2017-03-02T10:26:15.606Z,1045
2017-03-02T10:26:43.876Z,795
2017-03-02T10:27:12.048Z,830
2017-03-02T10:27:40.106Z,755
2017-03-02T10:28:08.378Z,725
2017-03-02T10:28:36.751Z,695
2017-03-02T10:29:04.967Z,675
2017-03-02T10:29:33.149Z,670
2017-03-02T10:30:01.581Z,660
2017-03-02T10:30:29.919Z,640
2017-03-02T10:30:58.144Z,645
2017-03-02T10:31:26.611Z,630
2017-03-02T10:31:55.224Z,655
2017-03-02T10:32:23.359Z,660
2017-03-02T10:32:51.514Z,665
2017-03-02T10:33:19.792Z,740
2017-03-02T10:33:48.016Z,770
2017-03-02T10:34:16.301Z,760
2017-03-02T10:34:44.671Z,940
2017-03-02T10:35:12.865Z,875
2017-03-02T10:35:40.877Z,805
2017-03-02T10:36:09.079Z,835
2017-03-02T10:36:37.309Z,830
2017-03-02T10:37:05.324Z,820
2017-03-02T10:37:33.318Z,700
2017-03-02T10:38:01.619Z,675
2017-03-02T10:38:29.913Z,665
2017-03-02T10:38:58.246Z,665
2017-03-02T10:39:26.850Z,675
2017-03-02T10:39:57.848Z,655
2017-03-02T10:40:25.981Z,655
2017-03-02T10:40:54.162Z,675
2017-03-02T10:41:24.131Z,710
2017-03-02T10:41:52.469Z,790
2017-03-02T10:42:20.684Z,825
2017-03-02T10:42:50.337Z,725
2017-03-02T10:43:18.484Z,685
2017-03-02T10:43:46.641Z,650
2017-03-02T10:44:14.837Z,620
2017-03-02T10:44:43.149Z,605
2017-03-02T10:45:11.500Z,595
2017-03-02T10:45:39.470Z,595
2017-03-02T10:46:07.811Z,590
2017-03-02T10:46:36.106Z,590
2017-03-02T10:47:04.233Z,595
2017-03-02T10:47:32.419Z,600
2017-03-02T10:48:00.633Z,615
2017-03-02T10:48:28.822Z,625
2017-03-02T10:48:57.244Z,635
2017-03-02T10:49:25.645Z,665
2017-03-02T10:49:53.943Z,670
2017-03-02T10:50:22.281Z,700
2017-03-02T10:50:50.606Z,740
2017-03-02T10:51:18.851Z,760
2017-03-02T10:51:46.994Z,795
2017-03-02T10:52:15.355Z,850
2017-03-02T10:52:43.855Z,915
2017-03-02T10:53:12.045Z,955
2017-03-02T10:53:40.752Z,905
2017-03-02T10:54:09.069Z,900
2017-03-02T10:54:37.417Z,925
2017-03-02T10:55:05.486Z,990
2017-03-02T10:55:33.804Z,1040
2017-03-02T10:56:02.120Z,1270
2017-03-02T10:56:30.402Z,1425
2017-03-02T10:56:58.604Z,1295
2017-03-02T10:57:26.852Z,1535
2017-03-02T10:57:54.929Z,1820
2017-03-02T10:58:23.149Z,2515
2017-03-02T10:58:51.440Z,2615
2017-03-02T10:59:19.632Z,2600
2017-03-02T10:59:47.947Z,2690
2017-03-02T11:00:16.023Z,2885
2017-03-02T11:00:44.192Z,2875
2017-03-02T11:01:12.576Z,2280
2017-03-02T11:01:40.619Z,2355
2017-03-02T11:02:08.936Z,2355
2017-03-02T11:02:37.047Z,2000
2017-03-02T11:03:05.246Z,1995
2017-03-02T11:03:33.408Z,2590
2017-03-02T11:04:01.650Z,2395
2017-03-02T11:04:29.763Z,2225
2017-03-02T11:04:58.022Z,2580
2017-03-02T11:05:26.076Z,2275
2017-03-02T11:05:54.324Z,2450
2017-03-02T11:06:22.539Z,2160
2017-03-02T11:06:50.715Z,1505
2017-03-02T11:07:18.827Z,1605
2017-03-02T11:07:47.061Z,1390
2017-03-02T11:08:15.375Z,1170
2017-03-02T11:08:43.395Z,1145
2017-03-02T11:09:11.875Z,1045
2017-03-02T11:09:40.147Z,1060
2017-03-02T11:10:08.343Z,1035
2017-03-02T11:10:36.653Z,1035
2017-03-02T11:11:04.868Z,1055
2017-03-02T11:11:32.977Z,1165
2017-03-02T11:12:01.285Z,1775
2017-03-02T11:12:29.489Z,2395
2017-03-02T11:12:57.755Z,2230
2017-03-02T11:13:25.961Z,1580
2017-03-02T11:13:54.124Z,1240
2017-03-02T11:14:22.362Z,1125
2017-03-02T11:14:50.774Z,1135
2017-03-02T11:15:19.335Z,1005
2017-03-02T11:15:47.511Z,980
2017-03-02T11:16:15.633Z,975
2017-03-02T11:16:43.599Z,940
2017-03-02T11:17:11.902Z,905
2017-03-02T11:17:40.162Z,875
2017-03-02T11:18:08.368Z,895
2017-03-02T11:18:36.831Z,890
2017-03-02T11:19:05.029Z,945
2017-03-02T11:19:33.069Z,1000
2017-03-02T11:20:01.211Z,1050
2017-03-02T11:20:29.292Z,985
2017-03-02T11:20:57.330Z,920
2017-03-02T11:21:25.321Z,885
2017-03-02T11:21:53.578Z,855
2017-03-02T11:22:21.851Z,830
2017-03-02T11:22:50.074Z,825
2017-03-02T11:23:18.234Z,810
2017-03-02T11:23:46.224Z,795
2017-03-02T11:24:14.443Z,795
2017-03-02T11:24:42.778Z,785
2017-03-02T11:25:11.027Z,790
2017-03-02T11:25:39.220Z,795
2017-03-02T11:26:07.204Z,795
2017-03-02T11:26:35.802Z,795
2017-03-02T11:27:04.122Z,815
2017-03-02T11:27:32.196Z,820
2017-03-02T11:28:00.423Z,830
2017-03-02T11:28:28.660Z,835
2017-03-02T11:28:56.814Z,830
2017-03-02T11:29:25.019Z,835
2017-03-02T11:29:53.191Z,835
2017-03-02T11:30:21.286Z,855
2017-03-02T11:30:49.702Z,835
2017-03-02T11:31:19.864Z,850
2017-03-02T11:31:48.113Z,860
2017-03-02T11:32:16.343Z,875
2017-03-02T11:32:44.370Z,875
2017-03-02T11:33:12.590Z,885
2017-03-02T11:33:40.819Z,890
2017-03-02T11:34:08.945Z,910
2017-03-02T11:34:37.173Z,900
2017-03-02T11:35:05.407Z,910
2017-03-02T11:35:33.576Z,940
2017-03-02T11:36:01.824Z,950
2017-03-02T11:36:29.949Z,945
2017-03-02T11:36:58.184Z,970
2017-03-02T11:37:26.311Z,980
2017-03-02T11:37:54.418Z,975
2017-03-02T11:38:22.543Z,1000
2017-03-02T11:38:50.682Z,1005
2017-03-02T11:39:19.003Z,980
2017-03-02T11:39:47.124Z,965
2017-03-02T11:40:15.322Z,955
2017-03-02T11:40:43.545Z,950
2017-03-02T11:41:11.693Z,945
2017-03-02T11:41:39.990Z,945
2017-03-02T11:42:08.239Z,940
2017-03-02T11:42:36.391Z,940
2017-03-02T11:43:04.384Z,910
2017-03-02T11:43:33.914Z,920
2017-03-02T11:44:02.262Z,940
2017-03-02T11:44:30.800Z,925
2017-03-02T11:44:59.208Z,930
2017-03-02T11:45:27.348Z,930
2017-03-02T11:45:55.330Z,920
2017-03-02T11:46:23.513Z,935
2017-03-02T11:46:51.741Z,915
2017-03-02T11:47:19.917Z,900
2017-03-02T11:47:48.129Z,875
2017-03-02T11:48:18.575Z,890
2017-03-02T11:48:47.103Z,885
2017-03-02T11:49:15.496Z,850
2017-03-02T11:49:43.813Z,855
2017-03-02T11:50:12.003Z,885
2017-03-02T11:50:40.302Z,910
2017-03-02T11:51:08.462Z,915
2017-03-02T11:51:36.758Z,895
2017-03-02T11:52:04.823Z,900
2017-03-02T11:52:33.116Z,925
2017-03-02T11:53:01.384Z,945
2017-03-02T11:53:29.659Z,940
2017-03-02T11:53:57.840Z,970
2017-03-02T11:54:26.046Z,1005
2017-03-02T11:54:54.223Z,990
2017-03-02T11:55:22.380Z,945
2017-03-02T11:55:50.658Z,945
2017-03-02T11:56:18.997Z,940
2017-03-02T11:56:47.136Z,905
2017-03-02T11:57:15.432Z,980
2017-03-02T11:57:43.624Z,1015
2017-03-02T11:58:11.568Z,1005
2017-03-02T11:58:39.744Z,965
2017-03-02T11:59:07.952Z,1075
2017-03-02T11:59:36.235Z,1135
2017-03-02T12:00:04.423Z,1015
2017-03-02T12:00:32.700Z,1110
2017-03-02T12:01:00.892Z,1205
2017-03-02T12:01:29.072Z,1265
2017-03-02T12:01:57.287Z,1435
2017-03-02T12:02:25.603Z,1540
2017-03-02T12:02:54.991Z,2395
2017-03-02T12:03:23.128Z,2150
2017-03-02T12:03:51.423Z,1875
2017-03-02T12:04:19.749Z,1765
2017-03-02T12:04:47.992Z,1485
2017-03-02T12:05:16.084Z,1505
2017-03-02T12:05:44.792Z,1525
2017-03-02T12:06:13.934Z,1225
2017-03-02T12:06:41.877Z,1665
2017-03-02T12:07:10.192Z,1335
2017-03-02T12:07:38.375Z,1205
2017-03-02T12:08:06.990Z,1285
2017-03-02T12:08:36.236Z,1185
2017-03-02T12:09:04.451Z,1300
2017-03-02T12:09:32.586Z,1350
2017-03-02T12:10:00.903Z,1220
2017-03-02T12:10:29.077Z,1370
2017-03-02T12:10:57.299Z,1385
2017-03-02T12:11:25.450Z,1415
2017-03-02T12:11:53.514Z,1375
2017-03-02T12:12:21.585Z,1380
2017-03-02T12:12:49.824Z,1500
2017-03-02T12:13:17.847Z,1570
2017-03-02T12:13:46.018Z,1735
2017-03-02T12:14:14.166Z,2235
2017-03-02T12:14:42.484Z,2490
2017-03-02T12:15:10.777Z,2285
2017-03-02T12:15:38.880Z,1540
2017-03-02T12:16:07.061Z,1775
2017-03-02T12:16:35.326Z,1800
2017-03-02T12:17:03.792Z,1815
2017-03-02T12:17:32.126Z,1730
2017-03-02T12:18:00.451Z,2015
2017-03-02T12:18:28.596Z,2345
2017-03-02T12:18:56.769Z,2290
2017-03-02T12:19:25.024Z,1965
2017-03-02T12:19:53.269Z,1820
2017-03-02T12:20:21.571Z,1780
2017-03-02T12:20:49.714Z,1660
2017-03-02T12:21:18.046Z,1665
2017-03-02T12:21:46.053Z,1975
2017-03-02T12:22:14.227Z,2075
2017-03-02T12:22:42.400Z,1650
2017-03-02T12:23:10.690Z,1860
2017-03-02T12:23:38.784Z,2055
2017-03-02T12:24:06.990Z,1645
2017-03-02T12:24:35.293Z,1650
2017-03-02T12:25:03.599Z,1490
2017-03-02T12:25:31.777Z,1320
2017-03-02T12:25:59.864Z,1350
2017-03-02T12:26:27.940Z,1410
2017-03-02T12:26:56.068Z,1385
2017-03-02T12:27:24.282Z,1340
2017-03-02T12:27:52.563Z,1390
2017-03-02T12:28:20.860Z,1310
2017-03-02T12:28:49.118Z,1305
2017-03-02T12:29:17.418Z,1315
2017-03-02T12:29:45.990Z,1285
2017-03-02T12:30:14.329Z,1305
2017-03-02T12:30:42.368Z,1375
2017-03-02T12:31:10.516Z,1275
2017-03-02T12:31:38.784Z,1220
2017-03-02T12:32:07.013Z,1160
2017-03-02T12:32:35.216Z,1100
2017-03-02T12:33:03.314Z,1080
2017-03-02T12:33:31.468Z,1060
2017-03-02T12:34:04.334Z,1065
2017-03-02T12:34:42.215Z,1050
2017-03-02T12:35:19.062Z,895
2017-03-02T12:35:52.528Z,745
2017-03-02T12:36:20.603Z,670
2017-03-02T12:36:48.779Z,630
2017-03-02T12:37:17.176Z,645
2017-03-02T12:37:45.937Z,695
2017-03-02T12:38:14.236Z,825
2017-03-02T12:38:42.524Z,980
2017-03-02T12:39:10.760Z,1025
2017-03-02T12:39:39.026Z,1030
2017-03-02T12:40:07.137Z,1030
2017-03-02T12:40:35.322Z,995
2017-03-02T12:41:03.634Z,950
2017-03-02T12:41:31.818Z,980
2017-03-02T12:42:00.031Z,1180
2017-03-02T12:42:28.287Z,1290
2017-03-02T12:42:56.496Z,1375
2017-03-02T12:43:24.653Z,1350
2017-03-02T12:43:52.943Z,1275
2017-03-02T12:44:21.296Z,1230
2017-03-02T12:44:49.905Z,1285
2017-03-02T12:45:18.076Z,1350
2017-03-02T12:45:46.307Z,1310
2017-03-02T12:46:14.421Z,1245
2017-03-02T12:46:42.656Z,1165
2017-03-02T12:47:10.973Z,1015
2017-03-02T12:47:39.255Z,980
2017-03-02T12:48:07.542Z,910
2017-03-02T12:48:35.717Z,920
2017-03-02T12:49:03.938Z,955
2017-03-02T12:49:32.272Z,980
2017-03-02T12:50:00.538Z,1025
2017-03-02T12:50:28.794Z,1140
2017-03-02T12:50:56.993Z,1070
2017-03-02T12:51:25.320Z,1045
2017-03-02T12:51:53.461Z,930
2017-03-02T12:52:21.557Z,840
2017-03-02T12:52:49.691Z,790
2017-03-02T12:53:17.839Z,800
2017-03-02T12:53:45.991Z,875
2017-03-02T12:54:14.402Z,1000
2017-03-02T12:54:42.443Z,1020
2017-03-02T12:55:10.653Z,1065
2017-03-02T12:55:38.771Z,1015
2017-03-02T12:56:06.890Z,1010
2017-03-02T12:56:35.011Z,1000
2017-03-02T12:57:03.216Z,1115
2017-03-02T12:57:31.382Z,1080
2017-03-02T12:57:59.699Z,1190
2017-03-02T12:58:27.910Z,1085
2017-03-02T12:58:56.221Z,1150
2017-03-02T12:59:25.661Z,1075
2017-03-02T12:59:55.019Z,1045
2017-03-02T13:00:23.080Z,950
2017-03-02T13:00:51.293Z,990
2017-03-02T13:01:19.421Z,940
2017-03-02T13:01:47.689Z,935
2017-03-02T13:02:15.713Z,930
2017-03-02T13:02:43.973Z,960
2017-03-02T13:03:12.254Z,985
2017-03-02T13:03:40.522Z,1005
2017-03-02T13:04:08.718Z,1005
2017-03-02T13:04:37.013Z,1070
2017-03-02T13:05:05.287Z,1020
2017-03-02T13:05:34.149Z,975
2017-03-02T13:06:02.525Z,920
2017-03-02T13:06:30.632Z,860
2017-03-02T13:06:58.850Z,825
2017-03-02T13:07:27.375Z,820
2017-03-02T13:07:55.795Z,845
2017-03-02T13:08:24.528Z,880
2017-03-02T13:08:53.419Z,940
2017-03-02T13:09:21.910Z,1045
2017-03-02T13:09:50.215Z,1000
2017-03-02T13:10:18.902Z,1020
2017-03-02T13:10:47.630Z,1025
2017-03-02T13:11:16.104Z,1010
2017-03-02T13:11:44.744Z,1005
2017-03-02T13:12:13.618Z,1035
2017-03-02T13:12:41.808Z,1495
2017-03-02T13:13:09.930Z,1195
2017-03-02T13:13:37.948Z,1300
2017-03-02T13:14:06.099Z,1965
2017-03-02T13:14:34.248Z,3620
2017-03-02T13:15:02.554Z,1810
2017-03-02T13:15:30.827Z,2160
2017-03-02T13:15:59.057Z,1695
2017-03-02T13:16:27.338Z,2305
2017-03-02T13:16:55.563Z,1860
2017-03-02T13:17:23.857Z,2315
2017-03-02T13:17:52.135Z,1865
2017-03-02T13:18:20.412Z,1440
2017-03-02T13:18:48.655Z,1300
2017-03-02T13:19:16.863Z,1230
2017-03-02T13:19:45.164Z,1230
2017-03-02T13:20:13.445Z,1300
2017-03-02T13:20:41.670Z,1395
2017-03-02T13:21:10.013Z,1535
2017-03-02T13:21:38.297Z,1505
2017-03-02T13:22:06.447Z,1415
2017-03-02T13:22:34.662Z,1475
2017-03-02T13:23:02.889Z,1500
2017-03-02T13:23:31.086Z,1545
2017-03-02T13:23:59.117Z,1685
2017-03-02T13:24:27.302Z,1910
2017-03-02T13:24:55.396Z,1640
2017-03-02T13:25:23.693Z,1575
2017-03-02T13:25:51.963Z,1440
2017-03-02T13:26:20.137Z,1360
2017-03-02T13:26:48.305Z,1320
2017-03-02T13:27:16.436Z,1285
2017-03-02T13:27:44.705Z,1235
2017-03-02T13:28:12.932Z,1150
2017-03-02T13:28:40.976Z,1100
2017-03-02T13:29:09.067Z,1050
2017-03-02T13:29:37.120Z,1625
2017-03-02T13:30:05.442Z,1480
2017-03-02T13:30:33.602Z,1280
2017-03-02T13:31:01.829Z,1145
2017-03-02T13:31:30.011Z,1070
2017-03-02T13:31:58.307Z,1305
2017-03-02T13:32:26.536Z,1640
2017-03-02T13:32:54.724Z,1030
2017-03-02T13:33:22.954Z,985
2017-03-02T13:33:51.142Z,885
2017-03-02T13:34:19.243Z,840
2017-03-02T13:34:47.514Z,810
2017-03-02T13:35:15.566Z,800
2017-03-02T13:35:43.662Z,845
2017-03-02T13:36:11.822Z,900
2017-03-02T13:36:39.997Z,1000
2017-03-02T13:37:08.265Z,1080
2017-03-02T13:37:36.264Z,1020
2017-03-02T13:38:04.414Z,1790
2017-03-02T13:38:32.582Z,895
2017-03-02T13:39:00.802Z,860
2017-03-02T13:39:28.860Z,900
2017-03-02T13:39:57.042Z,985
2017-03-02T13:40:25.408Z,1115
2017-03-02T13:40:53.526Z,1155
2017-03-02T13:41:21.847Z,1230
2017-03-02T13:41:50.081Z,1315
2017-03-02T13:42:18.251Z,1345
2017-03-02T13:42:46.415Z,1460
2017-03-02T13:43:14.560Z,1835
2017-03-02T13:43:42.730Z,2705
2017-03-02T13:44:10.849Z,1830
2017-03-02T13:44:39.121Z,1805
2017-03-02T13:45:07.227Z,2020
2017-03-02T13:45:35.572Z,1855
2017-03-02T13:46:03.700Z,2215
2017-03-02T13:46:31.868Z,1660
2017-03-02T13:47:00.066Z,1615
2017-03-02T13:47:28.072Z,1525
2017-03-02T13:47:56.381Z,1820
2017-03-02T13:48:24.533Z,1880
2017-03-02T13:48:52.793Z,1505
2017-03-02T13:49:21.050Z,1675
2017-03-02T13:49:49.285Z,1340
2017-03-02T13:50:17.440Z,1290
2017-03-02T13:50:45.684Z,1265
2017-03-02T13:51:13.829Z,1185
2017-03-02T13:51:42.212Z,1165
2017-03-02T13:52:10.443Z,1045
2017-03-02T13:52:38.565Z,980
2017-03-02T13:53:06.596Z,940
2017-03-02T13:53:34.853Z,920
2017-03-02T13:54:03.083Z,960
2017-03-02T13:54:31.281Z,900
2017-03-02T13:54:59.300Z,855
2017-03-02T13:55:27.412Z,740
2017-03-02T13:55:55.645Z,640
2017-03-02T13:56:23.989Z,580
2017-03-02T13:56:52.311Z,560
2017-03-02T13:57:20.529Z,570
2017-03-02T13:57:48.719Z,595
2017-03-02T13:58:16.930Z,610
2017-03-02T13:58:45.128Z,620
2017-03-02T13:59:13.248Z,615
2017-03-02T13:59:41.374Z,620
2017-03-02T14:00:09.712Z,610
2017-03-02T14:00:37.665Z,590
2017-03-02T14:01:05.846Z,595
2017-03-02T14:01:34.160Z,625
2017-03-02T14:02:02.371Z,645
2017-03-02T14:02:30.553Z,665
2017-03-02T14:02:58.845Z,720
2017-03-02T14:03:27.177Z,775
2017-03-02T14:03:55.401Z,875
2017-03-02T14:04:23.674Z,960
2017-03-02T14:04:51.890Z,1040
2017-03-02T14:05:20.150Z,1145
2017-03-02T14:05:48.236Z,1225
2017-03-02T14:06:16.347Z,1275
2017-03-02T14:06:44.607Z,1315
2017-03-02T14:07:12.792Z,1335
2017-03-02T14:07:41.084Z,1375
2017-03-02T14:08:09.189Z,1390
2017-03-02T14:08:37.292Z,1380
2017-03-02T14:09:05.491Z,1395
2017-03-02T14:09:33.693Z,1380
2017-03-02T14:10:02.000Z,1385
2017-03-02T14:10:30.166Z,1425
2017-03-02T14:10:58.418Z,1700
2017-03-02T14:11:26.631Z,1405
2017-03-02T14:11:54.940Z,1415
2017-03-02T14:12:23.173Z,2135
2017-03-02T14:12:51.332Z,2050
2017-03-02T14:13:19.703Z,3330
2017-03-02T14:13:47.980Z,2810
2017-03-02T14:14:16.173Z,1575
2017-03-02T14:14:44.134Z,1580
2017-03-02T14:15:12.344Z,4610
2017-03-02T14:15:40.648Z,1870
2017-03-02T14:16:08.840Z,3410
2017-03-02T14:16:37.005Z,4120
2017-03-02T14:17:05.207Z,4270
2017-03-02T14:17:33.419Z,2615
2017-03-02T14:18:01.773Z,4380
2017-03-02T14:18:30.062Z,2355
2017-03-02T14:18:58.241Z,1520
2017-03-02T14:19:26.283Z,1490
2017-03-02T14:19:54.410Z,1510
2017-03-02T14:20:22.495Z,1600
2017-03-02T14:20:50.786Z,1635
2017-03-02T14:21:19.105Z,2120
2017-03-02T14:21:47.361Z,2195
2017-03-02T14:22:15.509Z,2270
2017-03-02T14:22:43.835Z,2000
2017-03-02T14:23:12.083Z,1930
2017-03-02T14:23:40.533Z,1370
2017-03-02T14:24:08.740Z,2150
2017-03-02T14:24:37.118Z,1420
2017-03-02T14:25:05.360Z,1395
2017-03-02T14:25:33.441Z,1200
2017-03-02T14:26:01.646Z,1180
2017-03-02T14:26:29.719Z,1150
2017-03-02T14:26:57.879Z,1175
2017-03-02T14:27:26.012Z,1220
2017-03-02T14:27:54.311Z,1295
2017-03-02T14:28:22.426Z,1410
2017-03-02T14:28:50.702Z,1400
2017-03-02T14:29:19.168Z,1390
2017-03-02T14:29:47.301Z,1360
2017-03-02T14:30:15.818Z,1385
2017-03-02T14:30:44.066Z,1410
2017-03-02T14:31:12.230Z,1490
2017-03-02T14:31:40.388Z,1590
2017-03-02T14:32:08.740Z,1550
2017-03-02T14:32:36.969Z,1500
2017-03-02T14:33:05.241Z,2040
2017-03-02T14:33:33.455Z,2275
2017-03-02T14:34:01.787Z,1575
2017-03-02T14:34:29.987Z,1560
2017-03-02T14:34:58.225Z,1540
2017-03-02T14:35:26.416Z,1520
2017-03-02T14:35:54.556Z,1640
2017-03-02T14:36:22.784Z,1660
2017-03-02T14:36:51.066Z,1610
2017-03-02T14:37:19.731Z,1790
2017-03-02T14:37:47.799Z,2045
2017-03-02T14:38:15.850Z,1910
2017-03-02T14:38:43.969Z,2260
2017-03-02T14:39:12.195Z,2490
2017-03-02T14:39:40.486Z,2650
2017-03-02T14:40:08.507Z,2565
2017-03-02T14:40:36.789Z,2625
2017-03-02T14:41:04.983Z,2915
2017-03-02T14:41:33.200Z,4665
2017-03-02T14:42:01.753Z,3175
2017-03-02T14:42:29.954Z,2855
2017-03-02T14:42:58.164Z,2725
2017-03-02T14:43:26.399Z,2410
2017-03-02T14:43:54.680Z,2055
2017-03-02T14:44:22.845Z,2010
2017-03-02T14:44:50.959Z,2015
2017-03-02T14:45:19.207Z,2310
2017-03-02T14:45:47.469Z,1770
2017-03-02T14:46:15.747Z,1680
2017-03-02T14:46:43.843Z,1875
2017-03-02T14:47:12.140Z,1795
2017-03-02T14:47:40.467Z,1570
2017-03-02T14:48:08.626Z,1615
2017-03-02T14:48:36.884Z,1630
2017-03-02T14:49:04.962Z,2910
2017-03-02T14:49:33.246Z,4585
2017-03-02T14:50:01.551Z,4005
2017-03-02T14:50:29.841Z,3960
2017-03-02T14:50:58.216Z,3005
2017-03-02T14:51:26.550Z,2950
2017-03-02T14:51:54.770Z,2580
2017-03-02T14:52:23.052Z,3610
2017-03-02T14:52:51.177Z,3765
2017-03-02T14:53:19.530Z,3405
2017-03-02T14:53:47.714Z,3270
2017-03-02T14:54:16.002Z,2620
2017-03-02T14:54:44.155Z,2530
2017-03-02T14:55:14.467Z,1895
2017-03-02T14:55:43.059Z,1875
2017-03-02T14:56:11.357Z,1755
2017-03-02T14:56:39.563Z,1690
2017-03-02T14:57:07.786Z,1915
2017-03-02T14:57:36.049Z,1810
2017-03-02T14:58:04.320Z,1675
2017-03-02T14:58:32.666Z,1500
2017-03-02T14:59:00.762Z,1465
2017-03-02T14:59:29.091Z,1470
2017-03-02T14:59:57.391Z,1460
2017-03-02T15:00:25.623Z,1445
2017-03-02T15:00:53.779Z,1450
2017-03-02T15:01:22.108Z,1425
2017-03-02T15:01:50.342Z,1395
2017-03-02T15:02:18.654Z,1385
2017-03-02T15:02:46.758Z,1370
2017-03-02T15:03:14.899Z,1350
2017-03-02T15:03:43.199Z,1340
2017-03-02T15:04:11.414Z,1325
2017-03-02T15:04:39.721Z,1335
2017-03-02T15:05:07.899Z,1320
2017-03-02T15:05:35.955Z,1305
2017-03-02T15:06:04.079Z,1290
2017-03-02T15:06:32.378Z,1265
2017-03-02T15:07:00.530Z,1250
2017-03-02T15:07:28.691Z,1220
2017-03-02T15:07:56.873Z,1195
2017-03-02T15:08:25.205Z,1190
2017-03-02T15:08:53.393Z,1175
2017-03-02T15:09:21.561Z,1130
2017-03-02T15:09:49.754Z,1115
2017-03-02T15:10:17.934Z,1135
2017-03-02T15:10:46.125Z,1210
2017-03-02T15:11:14.250Z,1270
2017-03-02T15:11:42.535Z,1325
2017-03-02T15:12:10.826Z,1370
2017-03-02T15:12:38.922Z,1410
2017-03-02T15:13:06.930Z,1445
2017-03-02T15:13:35.135Z,1480
2017-03-02T15:14:03.254Z,1480
2017-03-02T15:14:31.574Z,1480
2017-03-02T15:14:59.787Z,1485
2017-03-02T15:15:27.962Z,1475
2017-03-02T15:15:56.186Z,1480
2017-03-02T15:16:24.729Z,1520
2017-03-02T15:16:52.818Z,1575
2017-03-02T15:17:21.237Z,1675
2017-03-02T15:17:49.404Z,1775
2017-03-02T15:18:17.807Z,1860
2017-03-02T15:18:46.046Z,1865
2017-03-02T15:19:14.135Z,1830
2017-03-02T15:19:42.261Z,1800
2017-03-02T15:20:10.611Z,1740
2017-03-02T15:20:38.764Z,1680
2017-03-02T15:21:06.982Z,1650
2017-03-02T15:21:35.614Z,1605
2017-03-02T15:22:04.190Z,1525
2017-03-02T15:22:33.217Z,1500
2017-03-02T15:23:01.320Z,1455
2017-03-02T15:23:29.515Z,1405
2017-03-02T15:23:57.817Z,1400
2017-03-02T15:24:26.118Z,1365
2017-03-02T15:24:54.178Z,1390
2017-03-02T15:25:22.400Z,1570
2017-03-02T15:25:50.592Z,2300
2017-03-02T15:26:18.694Z,2420
2017-03-02T15:26:46.924Z,2805
2017-03-02T15:27:15.238Z,3405
2017-03-02T15:27:43.492Z,2920
2017-03-02T15:28:11.669Z,3955
2017-03-02T15:28:39.780Z,4175
2017-03-02T15:29:07.799Z,4125
2017-03-02T15:29:35.943Z,3000
2017-03-02T15:30:04.136Z,4240
2017-03-02T15:30:32.409Z,4300
2017-03-02T15:31:00.935Z,3310
2017-03-02T15:31:29.028Z,4020
2017-03-02T15:31:57.316Z,1465
2017-03-02T15:32:25.693Z,1450
2017-03-02T15:32:54.150Z,1685
2017-03-02T15:33:22.432Z,3420
2017-03-02T15:33:50.773Z,3820
2017-03-02T15:34:19.052Z,2815
2017-03-02T15:34:47.746Z,3975
2017-03-02T15:35:15.955Z,1655
2017-03-02T15:35:44.220Z,1535
2017-03-02T15:36:12.562Z,1945
2017-03-02T15:36:40.891Z,2140
2017-03-02T15:37:09.145Z,1500
2017-03-02T15:37:37.221Z,1940
2017-03-02T15:38:05.235Z,2090
2017-03-02T15:38:33.943Z,2635
2017-03-02T15:39:02.323Z,2835
2017-03-02T15:39:30.510Z,1400
2017-03-02T15:39:58.751Z,3600
2017-03-02T15:40:26.900Z,3765
2017-03-02T15:40:55.143Z,3870
2017-03-02T15:41:23.402Z,3315
2017-03-02T15:41:51.572Z,1065
2017-03-02T15:42:19.860Z,965
2017-03-02T15:42:48.211Z,910
2017-03-02T15:43:16.485Z,880
2017-03-02T15:43:44.359Z,895
2017-03-02T15:44:12.665Z,910
2017-03-02T15:44:40.808Z,900
2017-03-02T15:45:09.107Z,925
2017-03-02T15:45:37.290Z,990
2017-03-02T15:46:05.382Z,1505
2017-03-02T15:46:33.511Z,1175
2017-03-02T15:47:01.649Z,1190
2017-03-02T15:47:30.080Z,1260
2017-03-02T15:47:58.255Z,1790
2017-03-02T15:48:26.527Z,1690
2017-03-02T15:48:54.666Z,3785
2017-03-02T15:49:22.940Z,3880
2017-03-02T15:49:51.220Z,3875
2017-03-02T15:50:19.424Z,2475
2017-03-02T15:50:47.683Z,3475
2017-03-02T15:51:16.003Z,3510
2017-03-02T15:51:44.851Z,3550
2017-03-02T15:52:12.852Z,3500
2017-03-02T15:52:41.141Z,3505
2017-03-02T15:53:09.153Z,3510
2017-03-02T15:53:37.360Z,990
2017-03-02T15:54:05.503Z,1015
2017-03-02T15:54:33.702Z,1135
2017-03-02T15:55:02.012Z,1285
2017-03-02T15:55:30.410Z,3855
2017-03-02T15:55:58.594Z,3685
2017-03-02T15:56:26.850Z,3550
2017-03-02T15:56:54.871Z,2540
2017-03-02T15:57:23.073Z,3510
2017-03-02T15:57:51.426Z,3530
2017-03-02T15:58:19.547Z,3720
2017-03-02T15:58:47.750Z,3665
2017-03-02T15:59:16.274Z,3745
2017-03-02T15:59:44.401Z,2435
2017-03-02T16:00:12.599Z,1265
2017-03-02T16:00:40.751Z,2615
2017-03-02T16:01:08.864Z,3380
2017-03-02T16:01:37.123Z,1190
2017-03-02T16:02:05.235Z,1165
2017-03-02T16:02:33.358Z,910
2017-03-02T16:03:01.765Z,880
2017-03-02T16:03:29.973Z,915
2017-03-02T16:03:58.072Z,995
2017-03-02T16:04:26.305Z,1115
2017-03-02T16:04:54.524Z,1270
2017-03-02T16:05:22.820Z,1450
2017-03-02T16:05:51.053Z,1655
2017-03-02T16:06:19.156Z,2065
2017-03-02T16:06:47.440Z,1685
2017-03-02T16:07:15.541Z,2110
2017-03-02T16:07:43.825Z,3095
2017-03-02T16:08:11.999Z,3980
2017-03-02T16:08:40.215Z,2490
2017-03-02T16:09:08.672Z,1890
2017-03-02T16:09:36.985Z,1670
2017-03-02T16:10:05.236Z,1535
2017-03-02T16:10:33.318Z,1415
2017-03-02T16:11:01.436Z,1450
2017-03-02T16:11:29.586Z,1460
2017-03-02T16:11:57.733Z,1525
2017-03-02T16:12:25.951Z,1665
2017-03-02T16:12:54.311Z,1560
2017-03-02T16:13:22.563Z,1505
2017-03-02T16:13:50.919Z,1500
2017-03-02T16:14:18.994Z,1550
2017-03-02T16:14:47.032Z,1770
2017-03-02T16:15:15.111Z,1980
2017-03-02T16:15:43.213Z,2070
2017-03-02T16:16:11.483Z,1945
2017-03-02T16:16:39.652Z,1595
2017-03-02T16:17:07.905Z,1905
2017-03-02T16:17:36.142Z,1510
2017-03-02T16:18:04.431Z,1505
2017-03-02T16:18:32.564Z,1465
2017-03-02T16:19:00.862Z,1685
2017-03-02T16:19:28.914Z,3835
2017-03-02T16:19:57.215Z,1885
2017-03-02T16:20:25.519Z,1440
2017-03-02T16:20:53.815Z,1395
2017-03-02T16:21:21.937Z,1340
2017-03-02T16:21:50.030Z,1330
2017-03-02T16:22:18.253Z,1390
2017-03-02T16:22:46.289Z,1385
2017-03-02T16:23:14.635Z,1330
2017-03-02T16:23:42.911Z,1190
2017-03-02T16:24:11.142Z,1135
2017-03-02T16:24:39.266Z,1100
2017-03-02T16:25:07.413Z,1090
2017-03-02T16:25:35.509Z,1105
2017-03-02T16:26:03.617Z,1175
2017-03-02T16:26:31.796Z,1340
2017-03-02T16:27:00.013Z,1240
2017-03-02T16:27:28.245Z,1190
2017-03-02T16:27:56.661Z,1155
2017-03-02T16:28:24.891Z,1135
2017-03-02T16:28:53.081Z,1100
2017-03-02T16:29:21.352Z,1070
2017-03-02T16:29:49.538Z,1055